Detall de PIREP

Printer-friendly versionPDF version

[2014/05/30 10:25:00]
Flight IATA:CT2313
Pilot Number:042
Company ICAO:CAT
Aircraft Type:F100/A
PAX:46
Aircraft Registration:PFJ
Departing Airport: LIBP
Destination Airport: LIEA
Alternate Airport:LIEO
Online: VATSIM
Route:ORVID UZ924 KOLUS UM603 MOROB
Flight Level:F260
No Slew and time accel
No pause
Crash detect
Detect pilot in Cockpit between each 30 and 45 minutes
10:25 Zero fuel Weight: 81826 Lbs, Fuel Weight: 16671 Lbs
10:25 VATSIM:LIBP 300950Z 01007KT 9999 FEW070 22/12 Q1013
10:25 VATSIM:LIEA 300950Z 28009KT 240V330 9999 FEW025 21/15 Q1017
10:27 Parking Brakes off
10:30 Take-off
10:30 Take off Weight: 98185 Lbs
10:30 Wind: 009º @ 007 Knots Heading: 217º
10:30 POS N42º 25´ 38´´ E014º 10´ 44´´
10:30 Gear Up: 162 Knots
10:30 Flaps:2 at 162 Knots
10:30 Flaps:1 at 163 Knots
10:31 Flaps:0 at 195 Knots
10:44 TOC
10:44 Fuel Weight: 14419 Lb
10:45 Wind:303º@025 Knots Heading: 241º Ground Speed: 419 Knots Altitude 25980 ft
11:00 Wind:248º@032 Knots Heading: 249º Ground Speed: 431 Knots Altitude 26010 ft
11:07 TOD
11:07 Fuel Weight: 12147 Lb
11:14 Flaps:1 at 220 Knots
11:15 Wind:287º@021 Knots Heading: 318º Ground Speed: 231 Knots Altitude 10321 ft
11:19 Gear Down: 191 Knots
11:19 Flaps:3 at 191 Knots
11:21 TouchDown:Rate -337 ft/min Speed: 133 Knots
11:21 VATSIM:LIEA 301050Z 29008KT 240V330 9999 FEW025 21/14 Q1017
11:21 Land
11:21 Wind:304º@008 Knots
11:21 Heading: 203º
11:21 Flight Duration: 00:51
11:21 Landing Weight: 93005 Lbs
11:21 POS N40º 37´ 40´´ E008º 17´ 18´´
11:21 Parking brakes on
11:21 Block to Block Duration: 00:54
11:21 Final Fuel: 11168 Lbls
11:21 Spent Fuel: 5502 Lbls
11:21 Flight Length: 300 NM
11:21 TOD Land Length: 60 NM

Exportar CSV

Powered by Drupal - Modified by Danger4k